sensor_id;sensor_type;location;lat;lon;timestamp;P1;durP1;ratioP1;P2;durP2;ratioP2
20982;SDS011;10650;51.528;6.748;2023-01-06T00:01:39;9.70;;;6.60;;
20982;SDS011;10650;51.528;6.748;2023-01-06T00:04:08;10.48;;;6.75;;
20982;SDS011;10650;51.528;6.748;2023-01-06T00:06:36;10.40;;;6.28;;
20982;SDS011;10650;51.528;6.748;2023-01-06T00:09:04;7.88;;;5.95;;
20982;SDS011;10650;51.528;6.748;2023-01-06T00:11:33;9.38;;;5.85;;
20982;SDS011;10650;51.528;6.748;2023-01-06T00:14:01;10.50;;;5.82;;
20982;SDS011;10650;51.528;6.748;2023-01-06T00:16:30;8.27;;;6.00;;
20982;SDS011;10650;51.528;6.748;2023-01-06T00:18:59;9.20;;;5.35;;
20982;SDS011;10650;51.528;6.748;2023-01-06T00:21:28;9.18;;;5.05;;
20982;SDS011;10650;51.528;6.748;2023-01-06T00:23:56;8.90;;;5.65;;
20982;SDS011;10650;51.528;6.748;2023-01-06T00:26:29;9.05;;;5.13;;
20982;SDS011;10650;51.528;6.748;2023-01-06T00:28:57;8.80;;;5.15;;
20982;SDS011;10650;51.528;6.748;2023-01-06T00:31:25;9.57;;;4.82;;
20982;SDS011;10650;51.528;6.748;2023-01-06T00:33:55;10.43;;;5.10;;
20982;SDS011;10650;51.528;6.748;2023-01-06T00:36:24;8.65;;;4.15;;
20982;SDS011;10650;51.528;6.748;2023-01-06T00:38:54;7.82;;;4.30;;
20982;SDS011;10650;51.528;6.748;2023-01-06T00:41:22;8.48;;;4.35;;
20982;SDS011;10650;51.528;6.748;2023-01-06T00:44:07;7.75;;;4.22;;
20982;SDS011;10650;51.528;6.748;2023-01-06T00:46:35;10.23;;;4.93;;
20982;SDS011;10650;51.528;6.748;2023-01-06T00:49:03;10.82;;;4.90;;
20982;SDS011;10650;51.528;6.748;2023-01-06T00:51:33;20.55;;;10.65;;
20982;SDS011;10650;51.528;6.748;2023-01-06T00:54:03;8.68;;;4.82;;
20982;SDS011;10650;51.528;6.748;2023-01-06T00:56:34;7.47;;;4.72;;
20982;SDS011;10650;51.528;6.748;2023-01-06T00:59:03;6.30;;;4.03;;
20982;SDS011;10650;51.528;6.748;2023-01-06T01:01:35;11.48;;;4.88;;
20982;SDS011;10650;51.528;6.748;2023-01-06T01:04:04;9.43;;;4.55;;
20982;SDS011;10650;51.528;6.748;2023-01-06T01:06:33;5.70;;;4.05;;
20982;SDS011;10650;51.528;6.748;2023-01-06T01:09:04;7.07;;;3.90;;
20982;SDS011;10650;51.528;6.748;2023-01-06T01:11:32;10.07;;;4.43;;
20982;SDS011;10650;51.528;6.748;2023-01-06T01:14:18;9.40;;;4.95;;
20982;SDS011;10650;51.528;6.748;2023-01-06T01:16:47;8.90;;;4.63;;
20982;SDS011;10650;51.528;6.748;2023-01-06T01:19:15;9.02;;;4.15;;
20982;SDS011;10650;51.528;6.748;2023-01-06T01:21:43;9.30;;;5.07;;
20982;SDS011;10650;51.528;6.748;2023-01-06T01:24:12;11.25;;;4.30;;
20982;SDS011;10650;51.528;6.748;2023-01-06T01:26:40;8.77;;;4.45;;
20982;SDS011;10650;51.528;6.748;2023-01-06T01:29:09;7.85;;;3.90;;
20982;SDS011;10650;51.528;6.748;2023-01-06T01:31:38;6.60;;;3.40;;
20982;SDS011;10650;51.528;6.748;2023-01-06T01:34:06;8.20;;;3.55;;
20982;SDS011;10650;51.528;6.748;2023-01-06T01:36:35;7.75;;;3.03;;
20982;SDS011;10650;51.528;6.748;2023-01-06T01:39:03;5.80;;;2.70;;
20982;SDS011;10650;51.528;6.748;2023-01-06T01:41:32;10.13;;;3.22;;
20982;SDS011;10650;51.528;6.748;2023-01-06T01:44:02;8.48;;;2.95;;
20982;SDS011;10650;51.528;6.748;2023-01-06T01:46:50;5.22;;;2.20;;
20982;SDS011;10650;51.528;6.748;2023-01-06T01:49:20;7.72;;;2.70;;
20982;SDS011;10650;51.528;6.748;2023-01-06T01:51:53;5.47;;;2.30;;
20982;SDS011;10650;51.528;6.748;2023-01-06T01:54:23;3.92;;;2.55;;
20982;SDS011;10650;51.528;6.748;2023-01-06T01:56:57;4.47;;;2.40;;
20982;SDS011;10650;51.528;6.748;2023-01-06T01:59:32;6.18;;;2.50;;
20982;SDS011;10650;51.528;6.748;2023-01-06T02:02:03;5.32;;;2.60;;
20982;SDS011;10650;51.528;6.748;2023-01-06T02:04:32;4.07;;;2.60;;
20982;SDS011;10650;51.528;6.748;2023-01-06T02:07:02;8.00;;;2.75;;
20982;SDS011;10650;51.528;6.748;2023-01-06T02:09:32;5.93;;;2.80;;
20982;SDS011;10650;51.528;6.748;2023-01-06T02:12:05;8.10;;;2.90;;
20982;SDS011;10650;51.528;6.748;2023-01-06T02:14:35;6.05;;;3.53;;
20982;SDS011;10650;51.528;6.748;2023-01-06T02:17:06;6.95;;;3.17;;
20982;SDS011;10650;51.528;6.748;2023-01-06T02:19:52;4.80;;;2.70;;
20982;SDS011;10650;51.528;6.748;2023-01-06T02:22:45;8.02;;;3.25;;
20982;SDS011;10650;51.528;6.748;2023-01-06T02:25:36;4.70;;;2.45;;
20982;SDS011;10650;51.528;6.748;2023-01-06T02:28:31;6.47;;;2.60;;
20982;SDS011;10650;51.528;6.748;2023-01-06T02:34:21;4.85;;;2.40;;
20982;SDS011;10650;51.528;6.748;2023-01-06T02:36:59;5.57;;;2.92;;
20982;SDS011;10650;51.528;6.748;2023-01-06T02:39:36;5.22;;;2.75;;
20982;SDS011;10650;51.528;6.748;2023-01-06T02:42:12;7.20;;;3.20;;
20982;SDS011;10650;51.528;6.748;2023-01-06T02:44:47;7.00;;;2.95;;
20982;SDS011;10650;51.528;6.748;2023-01-06T02:47:29;6.00;;;2.92;;
20982;SDS011;10650;51.528;6.748;2023-01-06T02:50:08;5.65;;;2.90;;
20982;SDS011;10650;51.528;6.748;2023-01-06T02:52:44;5.68;;;2.75;;
20982;SDS011;10650;51.528;6.748;2023-01-06T02:55:20;7.43;;;3.03;;
20982;SDS011;10650;51.528;6.748;2023-01-06T02:57:56;5.90;;;2.80;;
20982;SDS011;10650;51.528;6.748;2023-01-06T03:00:29;7.47;;;2.72;;
20982;SDS011;10650;51.528;6.748;2023-01-06T03:03:01;9.85;;;3.13;;
20982;SDS011;10650;51.528;6.748;2023-01-06T03:05:33;6.45;;;2.95;;
20982;SDS011;10650;51.528;6.748;2023-01-06T03:08:03;10.20;;;3.65;;
20982;SDS011;10650;51.528;6.748;2023-01-06T03:10:38;10.88;;;4.18;;
20982;SDS011;10650;51.528;6.748;2023-01-06T03:13:09;9.65;;;4.72;;
20982;SDS011;10650;51.528;6.748;2023-01-06T03:15:41;7.80;;;4.20;;
20982;SDS011;10650;51.528;6.748;2023-01-06T03:18:11;9.60;;;4.85;;
20982;SDS011;10650;51.528;6.748;2023-01-06T03:20:39;9.85;;;4.30;;
20982;SDS011;10650;51.528;6.748;2023-01-06T03:23:07;8.50;;;3.38;;
20982;SDS011;10650;51.528;6.748;2023-01-06T03:25:36;4.82;;;3.00;;
20982;SDS011;10650;51.528;6.748;2023-01-06T03:28:04;8.05;;;2.90;;
20982;SDS011;10650;51.528;6.748;2023-01-06T03:30:42;6.88;;;3.17;;
20982;SDS011;10650;51.528;6.748;2023-01-06T03:33:17;8.77;;;2.63;;
20982;SDS011;10650;51.528;6.748;2023-01-06T03:35:54;9.40;;;3.47;;
20982;SDS011;10650;51.528;6.748;2023-01-06T03:38:38;11.35;;;4.82;;
20982;SDS011;10650;51.528;6.748;2023-01-06T03:41:18;10.50;;;5.05;;
20982;SDS011;10650;51.528;6.748;2023-01-06T03:44:15;17.70;;;7.78;;
20982;SDS011;10650;51.528;6.748;2023-01-06T03:46:50;14.93;;;6.88;;
20982;SDS011;10650;51.528;6.748;2023-01-06T03:49:24;14.00;;;5.50;;
20982;SDS011;10650;51.528;6.748;2023-01-06T03:51:58;9.00;;;5.30;;
20982;SDS011;10650;51.528;6.748;2023-01-06T03:54:32;12.48;;;6.10;;
20982;SDS011;10650;51.528;6.748;2023-01-06T03:57:06;10.43;;;5.72;;
20982;SDS011;10650;51.528;6.748;2023-01-06T03:59:40;11.82;;;6.75;;
20982;SDS011;10650;51.528;6.748;2023-01-06T04:02:11;15.45;;;8.55;;
20982;SDS011;10650;51.528;6.748;2023-01-06T04:04:41;17.35;;;7.88;;
20982;SDS011;10650;51.528;6.748;2023-01-06T04:07:09;14.23;;;7.78;;
20982;SDS011;10650;51.528;6.748;2023-01-06T04:09:37;14.25;;;9.02;;
20982;SDS011;10650;51.528;6.748;2023-01-06T04:12:05;10.95;;;6.00;;
20982;SDS011;10650;51.528;6.748;2023-01-06T04:14:50;12.63;;;7.90;;
20982;SDS011;10650;51.528;6.748;2023-01-06T04:17:18;16.00;;;7.22;;
20982;SDS011;10650;51.528;6.748;2023-01-06T04:19:47;9.50;;;6.30;;
20982;SDS011;10650;51.528;6.748;2023-01-06T04:22:15;11.68;;;6.60;;
20982;SDS011;10650;51.528;6.748;2023-01-06T04:24:43;13.15;;;8.02;;
20982;SDS011;10650;51.528;6.748;2023-01-06T04:27:10;13.63;;;6.68;;
20982;SDS011;10650;51.528;6.748;2023-01-06T04:29:38;19.55;;;10.30;;
20982;SDS011;10650;51.528;6.748;2023-01-06T04:32:06;9.05;;;3.58;;
20982;SDS011;10650;51.528;6.748;2023-01-06T04:34:34;6.50;;;3.40;;
20982;SDS011;10650;51.528;6.748;2023-01-06T04:37:03;8.85;;;4.10;;
20982;SDS011;10650;51.528;6.748;2023-01-06T04:39:31;6.13;;;3.25;;
20982;SDS011;10650;51.528;6.748;2023-01-06T04:41:59;8.75;;;4.30;;
20982;SDS011;10650;51.528;6.748;2023-01-06T04:44:27;9.75;;;4.80;;
20982;SDS011;10650;51.528;6.748;2023-01-06T04:46:55;9.60;;;4.22;;
20982;SDS011;10650;51.528;6.748;2023-01-06T04:49:22;7.65;;;3.15;;
20982;SDS011;10650;51.528;6.748;2023-01-06T04:51:50;8.38;;;2.42;;
20982;SDS011;10650;51.528;6.748;2023-01-06T04:54:20;5.15;;;2.28;;
20982;SDS011;10650;51.528;6.748;2023-01-06T04:56:48;4.80;;;2.28;;
20982;SDS011;10650;51.528;6.748;2023-01-06T04:59:15;4.28;;;2.30;;
20982;SDS011;10650;51.528;6.748;2023-01-06T05:01:43;4.18;;;2.00;;
20982;SDS011;10650;51.528;6.748;2023-01-06T05:04:11;4.43;;;2.00;;
20982;SDS011;10650;51.528;6.748;2023-01-06T05:06:39;4.28;;;2.33;;
20982;SDS011;10650;51.528;6.748;2023-01-06T05:09:07;4.95;;;2.13;;
20982;SDS011;10650;51.528;6.748;2023-01-06T05:11:36;4.90;;;2.00;;
20982;SDS011;10650;51.528;6.748;2023-01-06T05:14:04;4.22;;;2.10;;
20982;SDS011;10650;51.528;6.748;2023-01-06T05:16:33;5.88;;;2.00;;
20982;SDS011;10650;51.528;6.748;2023-01-06T05:19:03;3.70;;;1.70;;
20982;SDS011;10650;51.528;6.748;2023-01-06T05:21:41;4.90;;;2.13;;
20982;SDS011;10650;51.528;6.748;2023-01-06T05:24:09;6.10;;;2.35;;
20982;SDS011;10650;51.528;6.748;2023-01-06T05:26:41;6.88;;;2.15;;
20982;SDS011;10650;51.528;6.748;2023-01-06T05:29:09;4.95;;;1.92;;
20982;SDS011;10650;51.528;6.748;2023-01-06T05:31:42;3.88;;;2.50;;
20982;SDS011;10650;51.528;6.748;2023-01-06T05:34:10;4.10;;;1.90;;
20982;SDS011;10650;51.528;6.748;2023-01-06T05:36:38;5.18;;;1.67;;
20982;SDS011;10650;51.528;6.748;2023-01-06T05:39:06;4.45;;;1.80;;
20982;SDS011;10650;51.528;6.748;2023-01-06T05:41:33;4.22;;;1.70;;
20982;SDS011;10650;51.528;6.748;2023-01-06T05:44:03;4.32;;;1.73;;
20982;SDS011;10650;51.528;6.748;2023-01-06T05:46:31;4.03;;;1.70;;
20982;SDS011;10650;51.528;6.748;2023-01-06T05:48:59;3.63;;;1.80;;
20982;SDS011;10650;51.528;6.748;2023-01-06T05:51:27;3.05;;;1.70;;
20982;SDS011;10650;51.528;6.748;2023-01-06T05:53:55;4.30;;;1.70;;
20982;SDS011;10650;51.528;6.748;2023-01-06T05:56:26;4.13;;;2.42;;
20982;SDS011;10650;51.528;6.748;2023-01-06T05:58:54;2.38;;;1.50;;
20982;SDS011;10650;51.528;6.748;2023-01-06T06:01:24;3.17;;;1.90;;
20982;SDS011;10650;51.528;6.748;2023-01-06T06:03:53;7.38;;;2.00;;
20982;SDS011;10650;51.528;6.748;2023-01-06T06:06:22;7.68;;;3.33;;
20982;SDS011;10650;51.528;6.748;2023-01-06T06:08:51;6.15;;;3.80;;
20982;SDS011;10650;51.528;6.748;2023-01-06T06:11:18;9.10;;;4.80;;
20982;SDS011;10650;51.528;6.748;2023-01-06T06:13:48;7.60;;;5.00;;
20982;SDS011;10650;51.528;6.748;2023-01-06T06:16:18;8.63;;;4.28;;
20982;SDS011;10650;51.528;6.748;2023-01-06T06:18:49;8.85;;;4.97;;
20982;SDS011;10650;51.528;6.748;2023-01-06T06:21:19;8.70;;;4.15;;
20982;SDS011;10650;51.528;6.748;2023-01-06T06:23:48;5.38;;;3.90;;
20982;SDS011;10650;51.528;6.748;2023-01-06T06:26:18;6.82;;;3.53;;
20982;SDS011;10650;51.528;6.748;2023-01-06T06:28:46;7.07;;;3.83;;
20982;SDS011;10650;51.528;6.748;2023-01-06T06:31:14;8.38;;;4.97;;
20982;SDS011;10650;51.528;6.748;2023-01-06T06:33:44;11.68;;;6.40;;
20982;SDS011;10650;51.528;6.748;2023-01-06T06:36:13;8.10;;;4.40;;
20982;SDS011;10650;51.528;6.748;2023-01-06T06:38:41;7.75;;;4.15;;
20982;SDS011;10650;51.528;6.748;2023-01-06T06:41:10;9.25;;;4.25;;
20982;SDS011;10650;51.528;6.748;2023-01-06T06:43:38;6.90;;;3.85;;
20982;SDS011;10650;51.528;6.748;2023-01-06T06:46:06;4.35;;;3.00;;
20982;SDS011;10650;51.528;6.748;2023-01-06T06:48:34;4.55;;;2.47;;
20982;SDS011;10650;51.528;6.748;2023-01-06T06:51:03;5.45;;;2.63;;
20982;SDS011;10650;51.528;6.748;2023-01-06T06:53:34;4.80;;;2.38;;
20982;SDS011;10650;51.528;6.748;2023-01-06T06:56:04;5.10;;;2.38;;
20982;SDS011;10650;51.528;6.748;2023-01-06T06:58:33;4.80;;;2.60;;
20982;SDS011;10650;51.528;6.748;2023-01-06T07:01:02;6.38;;;2.80;;
20982;SDS011;10650;51.528;6.748;2023-01-06T07:03:31;6.65;;;2.50;;
20982;SDS011;10650;51.528;6.748;2023-01-06T07:05:59;5.57;;;2.33;;
20982;SDS011;10650;51.528;6.748;2023-01-06T07:08:28;3.88;;;2.30;;
20982;SDS011;10650;51.528;6.748;2023-01-06T07:10:59;3.53;;;2.20;;
20982;SDS011;10650;51.528;6.748;2023-01-06T07:13:27;4.13;;;1.80;;
20982;SDS011;10650;51.528;6.748;2023-01-06T07:15:55;5.38;;;2.53;;
20982;SDS011;10650;51.528;6.748;2023-01-06T07:18:23;8.80;;;3.28;;
20982;SDS011;10650;51.528;6.748;2023-01-06T07:20:51;5.45;;;2.90;;
20982;SDS011;10650;51.528;6.748;2023-01-06T07:23:19;6.07;;;2.78;;
20982;SDS011;10650;51.528;6.748;2023-01-06T07:25:49;4.53;;;2.80;;
20982;SDS011;10650;51.528;6.748;2023-01-06T07:28:19;9.27;;;2.50;;
20982;SDS011;10650;51.528;6.748;2023-01-06T07:30:47;6.03;;;2.78;;
20982;SDS011;10650;51.528;6.748;2023-01-06T07:33:16;7.22;;;3.83;;
20982;SDS011;10650;51.528;6.748;2023-01-06T07:35:45;5.05;;;2.92;;
20982;SDS011;10650;51.528;6.748;2023-01-06T07:38:13;5.68;;;2.67;;
20982;SDS011;10650;51.528;6.748;2023-01-06T07:40:40;6.32;;;3.05;;
20982;SDS011;10650;51.528;6.748;2023-01-06T07:43:08;7.38;;;3.20;;
20982;SDS011;10650;51.528;6.748;2023-01-06T07:45:38;9.27;;;2.92;;
20982;SDS011;10650;51.528;6.748;2023-01-06T07:48:07;7.30;;;3.30;;
20982;SDS011;10650;51.528;6.748;2023-01-06T07:50:35;11.23;;;3.95;;
20982;SDS011;10650;51.528;6.748;2023-01-06T07:53:03;5.35;;;2.55;;
20982;SDS011;10650;51.528;6.748;2023-01-06T07:55:31;6.35;;;2.72;;
20982;SDS011;10650;51.528;6.748;2023-01-06T07:58:02;4.88;;;2.20;;
20982;SDS011;10650;51.528;6.748;2023-01-06T08:00:31;4.72;;;2.88;;
20982;SDS011;10650;51.528;6.748;2023-01-06T08:03:03;5.85;;;3.00;;
20982;SDS011;10650;51.528;6.748;2023-01-06T08:05:32;7.28;;;2.90;;
20982;SDS011;10650;51.528;6.748;2023-01-06T08:08:03;5.13;;;2.20;;
20982;SDS011;10650;51.528;6.748;2023-01-06T08:10:31;3.53;;;2.00;;
20982;SDS011;10650;51.528;6.748;2023-01-06T08:12:59;4.13;;;2.20;;
20982;SDS011;10650;51.528;6.748;2023-01-06T08:15:27;6.90;;;2.40;;
20982;SDS011;10650;51.528;6.748;2023-01-06T08:17:55;4.65;;;2.40;;
20982;SDS011;10650;51.528;6.748;2023-01-06T08:20:24;4.22;;;2.20;;
20982;SDS011;10650;51.528;6.748;2023-01-06T08:22:52;4.30;;;2.17;;
20982;SDS011;10650;51.528;6.748;2023-01-06T08:25:20;3.47;;;1.83;;
20982;SDS011;10650;51.528;6.748;2023-01-06T08:27:48;3.05;;;1.85;;
20982;SDS011;10650;51.528;6.748;2023-01-06T08:30:16;2.17;;;1.70;;
20982;SDS011;10650;51.528;6.748;2023-01-06T08:32:47;3.75;;;2.13;;
20982;SDS011;10650;51.528;6.748;2023-01-06T08:35:15;6.50;;;2.03;;
20982;SDS011;10650;51.528;6.748;2023-01-06T08:37:44;3.72;;;1.67;;
20982;SDS011;10650;51.528;6.748;2023-01-06T08:40:14;3.45;;;1.70;;
20982;SDS011;10650;51.528;6.748;2023-01-06T08:42:44;3.55;;;1.67;;
20982;SDS011;10650;51.528;6.748;2023-01-06T08:45:12;3.30;;;1.70;;
20982;SDS011;10650;51.528;6.748;2023-01-06T08:47:40;4.22;;;1.65;;
20982;SDS011;10650;51.528;6.748;2023-01-06T08:50:08;2.72;;;1.50;;
20982;SDS011;10650;51.528;6.748;2023-01-06T08:52:36;1.65;;;1.50;;
20982;SDS011;10650;51.528;6.748;2023-01-06T08:55:06;3.13;;;1.50;;
20982;SDS011;10650;51.528;6.748;2023-01-06T08:57:34;1.77;;;1.40;;
20982;SDS011;10650;51.528;6.748;2023-01-06T09:00:02;2.63;;;1.70;;
20982;SDS011;10650;51.528;6.748;2023-01-06T09:02:31;1.90;;;1.60;;
20982;SDS011;10650;51.528;6.748;2023-01-06T09:04:59;2.80;;;1.48;;
20982;SDS011;10650;51.528;6.748;2023-01-06T09:07:27;1.33;;;1.23;;
20982;SDS011;10650;51.528;6.748;2023-01-06T09:09:55;1.98;;;1.40;;
20982;SDS011;10650;51.528;6.748;2023-01-06T09:12:25;2.15;;;1.40;;
20982;SDS011;10650;51.528;6.748;2023-01-06T09:14:53;3.10;;;1.67;;
20982;SDS011;10650;51.528;6.748;2023-01-06T09:17:21;1.75;;;1.35;;
20982;SDS011;10650;51.528;6.748;2023-01-06T09:19:49;3.08;;;1.60;;
20982;SDS011;10650;51.528;6.748;2023-01-06T09:22:17;2.05;;;1.60;;
20982;SDS011;10650;51.528;6.748;2023-01-06T09:24:44;2.22;;;1.70;;
20982;SDS011;10650;51.528;6.748;2023-01-06T09:27:14;2.47;;;1.80;;
20982;SDS011;10650;51.528;6.748;2023-01-06T09:29:44;2.03;;;1.50;;
20982;SDS011;10650;51.528;6.748;2023-01-06T09:32:11;1.92;;;1.70;;
20982;SDS011;10650;51.528;6.748;2023-01-06T09:34:39;2.10;;;1.60;;
20982;SDS011;10650;51.528;6.748;2023-01-06T09:37:07;2.50;;;1.67;;
20982;SDS011;10650;51.528;6.748;2023-01-06T09:39:35;2.00;;;1.80;;
20982;SDS011;10650;51.528;6.748;2023-01-06T09:42:08;2.05;;;1.83;;
20982;SDS011;10650;51.528;6.748;2023-01-06T09:44:51;2.55;;;2.00;;
20982;SDS011;10650;51.528;6.748;2023-01-06T09:47:23;2.78;;;1.77;;
20982;SDS011;10650;51.528;6.748;2023-01-06T09:49:58;2.33;;;2.13;;
20982;SDS011;10650;51.528;6.748;2023-01-06T09:52:30;3.00;;;2.30;;
20982;SDS011;10650;51.528;6.748;2023-01-06T09:55:02;2.90;;;2.10;;
20982;SDS011;10650;51.528;6.748;2023-01-06T09:57:34;2.70;;;1.88;;
20982;SDS011;10650;51.528;6.748;2023-01-06T10:00:10;2.33;;;1.92;;
20982;SDS011;10650;51.528;6.748;2023-01-06T10:02:49;1.95;;;1.77;;
20982;SDS011;10650;51.528;6.748;2023-01-06T10:05:18;2.00;;;1.90;;
20982;SDS011;10650;51.528;6.748;2023-01-06T10:07:50;2.35;;;1.90;;
20982;SDS011;10650;51.528;6.748;2023-01-06T10:10:26;2.55;;;1.70;;
20982;SDS011;10650;51.528;6.748;2023-01-06T10:13:03;2.38;;;1.80;;
20982;SDS011;10650;51.528;6.748;2023-01-06T10:15:46;2.20;;;2.00;;
20982;SDS011;10650;51.528;6.748;2023-01-06T10:18:22;1.75;;;1.65;;
20982;SDS011;10650;51.528;6.748;2023-01-06T10:21:01;3.08;;;1.80;;
20982;SDS011;10650;51.528;6.748;2023-01-06T10:23:43;2.25;;;1.67;;
20982;SDS011;10650;51.528;6.748;2023-01-06T10:26:24;2.50;;;1.80;;
20982;SDS011;10650;51.528;6.748;2023-01-06T10:28:59;2.20;;;2.00;;
20982;SDS011;10650;51.528;6.748;2023-01-06T10:31:32;2.40;;;1.73;;
20982;SDS011;10650;51.528;6.748;2023-01-06T10:34:03;2.05;;;1.70;;
20982;SDS011;10650;51.528;6.748;2023-01-06T10:36:43;1.77;;;1.60;;
20982;SDS011;10650;51.528;6.748;2023-01-06T10:39:20;2.70;;;1.95;;
20982;SDS011;10650;51.528;6.748;2023-01-06T10:41:54;2.42;;;1.60;;
20982;SDS011;10650;51.528;6.748;2023-01-06T10:44:41;1.70;;;1.55;;
20982;SDS011;10650;51.528;6.748;2023-01-06T10:47:13;1.67;;;1.58;;
20982;SDS011;10650;51.528;6.748;2023-01-06T10:49:48;1.70;;;1.60;;
20982;SDS011;10650;51.528;6.748;2023-01-06T10:52:15;2.08;;;1.88;;
20982;SDS011;10650;51.528;6.748;2023-01-06T10:54:45;2.40;;;1.67;;
20982;SDS011;10650;51.528;6.748;2023-01-06T10:57:15;2.97;;;1.88;;
20982;SDS011;10650;51.528;6.748;2023-01-06T11:00:06;2.28;;;1.48;;
20982;SDS011;10650;51.528;6.748;2023-01-06T11:02:37;2.33;;;1.70;;
20982;SDS011;10650;51.528;6.748;2023-01-06T11:05:11;1.83;;;1.60;;
20982;SDS011;10650;51.528;6.748;2023-01-06T11:07:44;1.95;;;1.50;;
20982;SDS011;10650;51.528;6.748;2023-01-06T11:10:19;2.10;;;1.92;;
20982;SDS011;10650;51.528;6.748;2023-01-06T11:12:52;2.60;;;1.80;;
20982;SDS011;10650;51.528;6.748;2023-01-06T11:15:27;2.58;;;2.17;;
20982;SDS011;10650;51.528;6.748;2023-01-06T11:18:04;3.28;;;2.30;;
20982;SDS011;10650;51.528;6.748;2023-01-06T11:20:44;2.10;;;1.90;;
20982;SDS011;10650;51.528;6.748;2023-01-06T11:23:21;2.30;;;2.00;;
20982;SDS011;10650;51.528;6.748;2023-01-06T11:28:43;3.25;;;2.20;;
20982;SDS011;10650;51.528;6.748;2023-01-06T11:31:17;3.45;;;2.30;;
20982;SDS011;10650;51.528;6.748;2023-01-06T11:33:50;2.15;;;1.85;;
20982;SDS011;10650;51.528;6.748;2023-01-06T11:36:20;4.22;;;2.03;;
20982;SDS011;10650;51.528;6.748;2023-01-06T11:38:51;2.88;;;1.80;;
20982;SDS011;10650;51.528;6.748;2023-01-06T11:41:24;2.50;;;2.30;;
20982;SDS011;10650;51.528;6.748;2023-01-06T11:43:56;3.20;;;2.30;;
20982;SDS011;10650;51.528;6.748;2023-01-06T11:46:34;2.55;;;2.33;;
20982;SDS011;10650;51.528;6.748;2023-01-06T11:49:08;3.08;;;2.75;;
20982;SDS011;10650;51.528;6.748;2023-01-06T11:51:46;2.47;;;2.20;;
20982;SDS011;10650;51.528;6.748;2023-01-06T11:54:21;4.68;;;3.90;;
20982;SDS011;10650;51.528;6.748;2023-01-06T11:57:04;4.63;;;3.10;;
20982;SDS011;10650;51.528;6.748;2023-01-06T11:59:45;4.00;;;3.50;;
20982;SDS011;10650;51.528;6.748;2023-01-06T12:02:23;3.42;;;3.10;;
20982;SDS011;10650;51.528;6.748;2023-01-06T12:04:58;3.83;;;3.40;;
20982;SDS011;10650;51.528;6.748;2023-01-06T12:07:33;4.28;;;3.15;;
20982;SDS011;10650;51.528;6.748;2023-01-06T12:10:08;3.42;;;3.13;;
20982;SDS011;10650;51.528;6.748;2023-01-06T12:12:41;5.57;;;2.83;;
20982;SDS011;10650;51.528;6.748;2023-01-06T12:15:10;3.83;;;2.78;;
20982;SDS011;10650;51.528;6.748;2023-01-06T12:17:41;3.50;;;2.65;;
20982;SDS011;10650;51.528;6.748;2023-01-06T12:20:17;5.78;;;3.00;;
20982;SDS011;10650;51.528;6.748;2023-01-06T12:22:50;3.65;;;2.50;;
20982;SDS011;10650;51.528;6.748;2023-01-06T12:25:21;4.05;;;2.90;;
20982;SDS011;10650;51.528;6.748;2023-01-06T12:27:52;2.85;;;2.60;;
20982;SDS011;10650;51.528;6.748;2023-01-06T12:30:29;3.13;;;2.38;;
20982;SDS011;10650;51.528;6.748;2023-01-06T12:33:02;2.53;;;2.00;;
20982;SDS011;10650;51.528;6.748;2023-01-06T12:35:39;2.60;;;2.25;;
20982;SDS011;10650;51.528;6.748;2023-01-06T12:38:12;3.00;;;2.33;;
20982;SDS011;10650;51.528;6.748;2023-01-06T12:40:49;2.45;;;2.00;;
20982;SDS011;10650;51.528;6.748;2023-01-06T12:43:22;3.78;;;1.92;;
20982;SDS011;10650;51.528;6.748;2023-01-06T12:45:53;2.92;;;2.45;;
20982;SDS011;10650;51.528;6.748;2023-01-06T12:48:31;2.47;;;2.17;;
20982;SDS011;10650;51.528;6.748;2023-01-06T12:51:07;3.50;;;2.42;;
20982;SDS011;10650;51.528;6.748;2023-01-06T12:53:41;2.80;;;2.03;;
20982;SDS011;10650;51.528;6.748;2023-01-06T12:56:21;3.78;;;2.30;;
20982;SDS011;10650;51.528;6.748;2023-01-06T12:59:02;2.85;;;1.83;;
20982;SDS011;10650;51.528;6.748;2023-01-06T13:01:40;2.20;;;2.00;;
20982;SDS011;10650;51.528;6.748;2023-01-06T13:07:18;4.10;;;2.72;;
20982;SDS011;10650;51.528;6.748;2023-01-06T13:10:04;4.25;;;2.50;;
20982;SDS011;10650;51.528;6.748;2023-01-06T13:15:45;3.67;;;2.45;;
20982;SDS011;10650;51.528;6.748;2023-01-06T13:18:14;3.53;;;1.70;;
20982;SDS011;10650;51.528;6.748;2023-01-06T13:20:50;2.83;;;1.85;;
20982;SDS011;10650;51.528;6.748;2023-01-06T13:23:30;2.80;;;1.80;;
20982;SDS011;10650;51.528;6.748;2023-01-06T13:26:18;2.80;;;1.55;;
20982;SDS011;10650;51.528;6.748;2023-01-06T13:29:13;2.65;;;1.80;;
20982;SDS011;10650;51.528;6.748;2023-01-06T13:35:05;2.60;;;1.70;;
20982;SDS011;10650;51.528;6.748;2023-01-06T13:37:59;1.70;;;1.60;;
20982;SDS011;10650;51.528;6.748;2023-01-06T13:40:41;3.60;;;1.73;;
20982;SDS011;10650;51.528;6.748;2023-01-06T13:43:13;2.95;;;1.75;;
20982;SDS011;10650;51.528;6.748;2023-01-06T13:45:47;4.43;;;2.05;;
20982;SDS011;10650;51.528;6.748;2023-01-06T13:48:19;3.03;;;1.67;;
20982;SDS011;10650;51.528;6.748;2023-01-06T13:50:51;3.33;;;1.85;;
20982;SDS011;10650;51.528;6.748;2023-01-06T13:53:20;3.05;;;1.80;;
20982;SDS011;10650;51.528;6.748;2023-01-06T14:01:47;2.13;;;1.92;;
20982;SDS011;10650;51.528;6.748;2023-01-06T14:07:13;3.75;;;2.20;;
20982;SDS011;10650;51.528;6.748;2023-01-06T14:09:56;5.22;;;2.20;;
20982;SDS011;10650;51.528;6.748;2023-01-06T14:12:27;2.28;;;1.92;;
20982;SDS011;10650;51.528;6.748;2023-01-06T14:14:57;6.63;;;3.50;;
20982;SDS011;10650;51.528;6.748;2023-01-06T14:17:36;7.80;;;5.53;;
20982;SDS011;10650;51.528;6.748;2023-01-06T14:20:17;3.72;;;2.50;;
20982;SDS011;10650;51.528;6.748;2023-01-06T14:22:57;3.47;;;2.45;;
20982;SDS011;10650;51.528;6.748;2023-01-06T14:25:27;4.70;;;3.72;;
20982;SDS011;10650;51.528;6.748;2023-01-06T14:34:16;3.92;;;2.20;;
20982;SDS011;10650;51.528;6.748;2023-01-06T14:36:46;2.33;;;1.60;;
20982;SDS011;10650;51.528;6.748;2023-01-06T14:39:17;3.25;;;1.95;;
20982;SDS011;10650;51.528;6.748;2023-01-06T14:41:51;2.17;;;1.55;;
20982;SDS011;10650;51.528;6.748;2023-01-06T14:44:26;2.58;;;1.77;;
20982;SDS011;10650;51.528;6.748;2023-01-06T14:47:00;12.70;;;11.32;;
20982;SDS011;10650;51.528;6.748;2023-01-06T14:49:32;1.63;;;1.52;;
20982;SDS011;10650;51.528;6.748;2023-01-06T14:52:11;1.65;;;1.30;;
20982;SDS011;10650;51.528;6.748;2023-01-06T14:54:44;3.17;;;1.75;;
20982;SDS011;10650;51.528;6.748;2023-01-06T14:57:24;6.97;;;6.18;;
20982;SDS011;10650;51.528;6.748;2023-01-06T15:00:05;2.72;;;2.03;;
20982;SDS011;10650;51.528;6.748;2023-01-06T15:02:41;2.30;;;2.10;;
20982;SDS011;10650;51.528;6.748;2023-01-06T15:05:15;2.67;;;1.63;;
20982;SDS011;10650;51.528;6.748;2023-01-06T15:07:55;3.65;;;3.00;;
20982;SDS011;10650;51.528;6.748;2023-01-06T15:10:25;4.60;;;3.03;;
20982;SDS011;10650;51.528;6.748;2023-01-06T15:12:54;4.30;;;2.80;;
20982;SDS011;10650;51.528;6.748;2023-01-06T15:15:27;5.63;;;4.28;;
20982;SDS011;10650;51.528;6.748;2023-01-06T15:17:57;3.35;;;2.90;;
20982;SDS011;10650;51.528;6.748;2023-01-06T15:20:28;6.88;;;6.28;;
20982;SDS011;10650;51.528;6.748;2023-01-06T15:22:58;2.78;;;2.20;;
20982;SDS011;10650;51.528;6.748;2023-01-06T15:25:29;2.97;;;2.55;;
20982;SDS011;10650;51.528;6.748;2023-01-06T15:28:00;3.50;;;2.30;;
20982;SDS011;10650;51.528;6.748;2023-01-06T15:30:29;2.97;;;2.38;;
20982;SDS011;10650;51.528;6.748;2023-01-06T15:33:01;4.15;;;3.83;;
20982;SDS011;10650;51.528;6.748;2023-01-06T15:35:30;3.90;;;3.33;;
20982;SDS011;10650;51.528;6.748;2023-01-06T15:38:01;4.15;;;2.60;;
20982;SDS011;10650;51.528;6.748;2023-01-06T15:40:33;3.35;;;2.90;;
20982;SDS011;10650;51.528;6.748;2023-01-06T15:43:01;3.33;;;3.00;;
20982;SDS011;10650;51.528;6.748;2023-01-06T15:45:30;4.00;;;3.17;;